createdAt,value
2019-03-10T00:01:13.950Z,14.60
2019-03-10T00:03:43.070Z,16.17
2019-03-10T00:06:12.182Z,18.13
2019-03-10T00:08:41.381Z,17.23
2019-03-10T00:11:10.518Z,21.10
2019-03-10T00:13:39.503Z,18.23
2019-03-10T00:16:08.667Z,16.60
2019-03-10T00:18:37.703Z,13.97
2019-03-10T00:21:06.931Z,21.50
2019-03-10T00:23:36.315Z,20.70
2019-03-10T00:26:05.515Z,13.00
2019-03-10T00:28:34.695Z,21.63
2019-03-10T00:31:03.826Z,14.97
2019-03-10T00:33:32.933Z,25.43
2019-03-10T00:36:02.462Z,16.27
2019-03-10T00:39:05.708Z,19.83
2019-03-10T00:42:00.934Z,14.50
2019-03-10T00:45:16.415Z,8.90
2019-03-10T00:48:21.512Z,15.23
2019-03-10T00:51:36.393Z,23.50
2019-03-10T00:54:05.335Z,12.07
2019-03-10T00:56:34.461Z,19.20
2019-03-10T00:59:03.906Z,14.37
2019-03-10T01:01:33.087Z,18.73
2019-03-10T01:04:02.301Z,9.97
2019-03-10T01:06:31.532Z,23.70
2019-03-10T01:09:00.708Z,13.93
2019-03-10T01:11:29.888Z,15.13
2019-03-10T01:13:58.931Z,17.23
2019-03-10T01:16:28.070Z,14.03
2019-03-10T01:18:57.182Z,11.00
2019-03-10T01:21:26.205Z,16.73
2019-03-10T01:23:55.596Z,20.17
2019-03-10T01:26:24.587Z,19.20
2019-03-10T01:28:53.588Z,23.03
2019-03-10T01:31:59.673Z,12.67
2019-03-10T01:34:43.975Z,19.70
2019-03-10T01:37:13.093Z,23.83
2019-03-10T01:39:42.257Z,15.40
2019-03-10T01:42:11.435Z,17.43
2019-03-10T01:44:41.019Z,16.83
2019-03-10T01:47:10.150Z,12.10
2019-03-10T01:49:39.258Z,19.63
2019-03-10T01:52:08.348Z,14.93
2019-03-10T01:54:37.368Z,11.47
2019-03-10T01:57:06.391Z,21.70
2019-03-10T01:59:35.505Z,11.50
2019-03-10T02:02:04.553Z,10.13
2019-03-10T02:04:33.719Z,15.53
2019-03-10T02:07:02.839Z,24.00
2019-03-10T02:09:31.858Z,11.37
2019-03-10T02:12:00.927Z,21.13
2019-03-10T02:14:29.930Z,19.50
2019-03-10T02:16:59.023Z,23.20
2019-03-10T02:19:28.133Z,13.23
2019-03-10T02:21:57.172Z,18.63
2019-03-10T02:24:26.195Z,16.13
2019-03-10T02:26:55.360Z,19.93
2019-03-10T02:29:24.529Z,20.40
2019-03-10T02:31:53.706Z,10.40
2019-03-10T02:34:22.823Z,15.70
2019-03-10T02:36:51.937Z,11.70
2019-03-10T02:39:21.217Z,14.90
2019-03-10T02:41:50.294Z,13.57
2019-03-10T02:44:19.392Z,9.73
2019-03-10T02:46:48.506Z,15.40
2019-03-10T02:49:17.642Z,19.97
2019-03-10T02:51:46.815Z,17.67
2019-03-10T02:54:15.915Z,20.50
2019-03-10T02:56:45.121Z,11.77
2019-03-10T02:59:14.141Z,24.47
2019-03-10T03:01:43.356Z,15.90
2019-03-10T03:04:12.573Z,17.33
2019-03-10T03:06:41.757Z,12.40
2019-03-10T03:09:10.834Z,11.70
2019-03-10T03:11:39.956Z,20.73
2019-03-10T03:14:09.157Z,13.40
2019-03-10T03:16:38.255Z,19.77
2019-03-10T03:19:07.420Z,14.13
2019-03-10T03:21:42.932Z,20.13
2019-03-10T03:24:07.357Z,14.13
2019-03-10T03:26:36.454Z,20.47
2019-03-10T03:29:05.531Z,14.80
2019-03-10T03:31:35.697Z,10.60
2019-03-10T03:34:04.813Z,19.60
2019-03-10T03:36:37.897Z,20.83
2019-03-10T03:39:35.386Z,11.43
2019-03-10T03:42:04.452Z,16.70
2019-03-10T03:44:33.532Z,11.57
2019-03-10T03:47:02.646Z,18.10
2019-03-10T03:49:31.853Z,19.23
2019-03-10T03:52:00.992Z,16.53
2019-03-10T03:54:30.108Z,11.57
2019-03-10T03:56:59.208Z,10.20
2019-03-10T03:59:28.323Z,16.83
2019-03-10T04:02:15.194Z,20.43
2019-03-10T04:04:44.430Z,12.27
2019-03-10T04:07:13.451Z,23.13
2019-03-10T04:09:42.608Z,12.53
2019-03-10T04:12:11.663Z,20.90
2019-03-10T04:14:40.807Z,12.57
2019-03-10T04:17:10.039Z,8.43
2019-03-10T04:19:39.124Z,14.10
2019-03-10T04:22:09.467Z,12.40
2019-03-10T04:24:38.629Z,13.97
2019-03-10T04:27:07.814Z,10.13
2019-03-10T04:29:36.931Z,18.73
2019-03-10T04:32:06.000Z,14.33
2019-03-10T04:34:35.181Z,11.23
2019-03-10T04:37:04.309Z,13.50
2019-03-10T04:39:33.338Z,14.87
2019-03-10T04:42:02.406Z,15.27
2019-03-10T04:44:31.491Z,12.30
2019-03-10T04:47:00.680Z,16.80
2019-03-10T04:49:29.824Z,14.23
2019-03-10T04:51:58.895Z,15.60
2019-03-10T04:55:05.247Z,17.83
2019-03-10T04:57:34.366Z,12.97
2019-03-10T05:00:03.665Z,15.33
2019-03-10T05:02:32.805Z,15.13
2019-03-10T05:05:02.348Z,20.03
2019-03-10T05:07:31.652Z,12.77
2019-03-10T05:10:00.910Z,11.80
2019-03-10T05:12:30.252Z,10.33
2019-03-10T05:14:59.460Z,17.97
2019-03-10T05:17:28.723Z,13.30
2019-03-10T05:19:57.858Z,11.67
2019-03-10T05:22:26.911Z,9.87
2019-03-10T05:24:55.933Z,17.40
2019-03-10T05:27:24.985Z,11.57
2019-03-10T05:29:54.357Z,16.93
2019-03-10T05:32:23.508Z,9.83
2019-03-10T05:34:52.614Z,13.00
2019-03-10T05:37:21.807Z,13.23
2019-03-10T05:39:51.067Z,12.00
2019-03-10T05:42:20.352Z,15.43
2019-03-10T05:44:53.366Z,9.83
2019-03-10T05:47:22.626Z,13.30
2019-03-10T05:49:51.804Z,9.17
2019-03-10T05:52:20.948Z,12.00
2019-03-10T05:54:50.207Z,7.67
2019-03-10T05:57:19.354Z,5.87
2019-03-10T05:59:48.468Z,10.20
2019-03-10T06:02:17.839Z,6.87
2019-03-10T06:04:46.946Z,6.93
2019-03-10T06:07:16.033Z,4.83
2019-03-10T06:09:45.219Z,7.20
2019-03-10T06:12:14.354Z,5.37
2019-03-10T06:14:43.435Z,9.00
2019-03-10T06:17:12.559Z,5.20
2019-03-10T06:19:41.567Z,3.53
2019-03-10T06:22:10.766Z,3.40
2019-03-10T06:24:39.889Z,3.50
2019-03-10T06:27:09.111Z,2.87
2019-03-10T06:29:38.149Z,3.60
2019-03-10T06:32:07.284Z,3.30
2019-03-10T06:34:36.518Z,1.70
2019-03-10T06:37:05.597Z,2.40
2019-03-10T06:39:34.606Z,2.40
2019-03-10T06:42:03.780Z,2.30
2019-03-10T06:44:32.895Z,2.37
2019-03-10T06:47:02.022Z,2.27
2019-03-10T06:49:31.134Z,2.17
2019-03-10T06:52:00.208Z,2.07
2019-03-10T06:54:29.320Z,1.63
2019-03-10T06:56:59.140Z,1.50
2019-03-10T06:59:28.322Z,1.83
2019-03-10T07:01:57.509Z,1.80
2019-03-10T07:04:26.555Z,1.80
2019-03-10T07:06:55.591Z,1.73
2019-03-10T07:09:24.686Z,2.40
2019-03-10T07:11:53.797Z,2.23
2019-03-10T07:14:22.871Z,2.33
2019-03-10T07:16:51.958Z,1.90
2019-03-10T07:19:20.983Z,2.13
2019-03-10T07:21:49.982Z,1.20
2019-03-10T07:24:19.085Z,1.77
2019-03-10T07:26:48.195Z,1.73
2019-03-10T07:29:26.988Z,2.70
2019-03-10T07:32:02.107Z,1.50
2019-03-10T07:34:58.256Z,1.57
2019-03-10T07:37:52.403Z,1.83
2019-03-10T07:40:35.100Z,5.23
2019-03-10T07:43:23.787Z,1.70
2019-03-10T07:46:24.155Z,2.23
2019-03-10T07:49:26.910Z,1.13
2019-03-10T07:52:02.707Z,1.00
2019-03-10T07:54:39.944Z,1.20
2019-03-10T07:57:29.554Z,1.50
2019-03-10T08:00:16.263Z,0.87
2019-03-10T08:03:06.318Z,1.57
2019-03-10T08:05:41.452Z,1.20
2019-03-10T08:08:41.744Z,1.40
2019-03-10T08:11:48.114Z,3.00
2019-03-10T08:14:36.921Z,4.37
2019-03-10T08:17:24.608Z,1.00
2019-03-10T08:20:07.743Z,1.00
2019-03-10T08:23:05.219Z,0.83
2019-03-10T08:25:51.817Z,1.57
2019-03-10T08:28:43.039Z,2.40
2019-03-10T08:31:29.530Z,1.00
2019-03-10T08:34:16.039Z,1.93
2019-03-10T08:37:13.140Z,0.77
2019-03-10T08:39:51.731Z,1.20
2019-03-10T08:42:25.962Z,0.97
2019-03-10T08:45:00.438Z,0.70
2019-03-10T08:47:58.228Z,0.80
2019-03-10T08:50:52.610Z,0.80
2019-03-10T08:53:26.839Z,0.80
2019-03-10T08:56:14.634Z,0.80
2019-03-10T08:59:02.827Z,0.70
2019-03-10T09:01:53.103Z,0.73
2019-03-10T09:04:50.015Z,3.73
2019-03-10T09:07:50.319Z,0.80
2019-03-10T09:10:36.919Z,0.70
2019-03-10T09:13:31.150Z,2.20
2019-03-10T09:16:16.448Z,0.80
2019-03-10T09:18:58.850Z,0.87
2019-03-10T09:21:44.392Z,0.70
2019-03-10T09:24:40.715Z,0.80
2019-03-10T09:27:30.885Z,0.87
2019-03-10T09:30:22.046Z,0.87
2019-03-10T09:33:22.146Z,1.37
2019-03-10T09:36:06.536Z,1.83
2019-03-10T09:39:09.482Z,0.80
2019-03-10T09:41:57.508Z,1.23
2019-03-10T09:44:51.670Z,0.80
2019-03-10T09:47:50.610Z,1.00
2019-03-10T09:50:36.008Z,1.77
2019-03-10T09:53:14.433Z,2.10
2019-03-10T09:56:05.602Z,1.73
2019-03-10T09:59:02.505Z,2.93
2019-03-10T10:01:52.847Z,1.07
2019-03-10T10:04:34.354Z,2.13
2019-03-10T10:07:32.775Z,2.43
2019-03-10T10:10:24.122Z,10.30
2019-03-10T10:13:11.119Z,2.60
2019-03-10T10:15:57.634Z,4.57
2019-03-10T10:18:44.535Z,2.90
2019-03-10T10:21:47.889Z,2.50
2019-03-10T10:24:38.496Z,5.87
2019-03-10T10:27:41.098Z,2.83
2019-03-10T10:30:28.745Z,1.40
2019-03-10T10:33:08.723Z,3.10
2019-03-10T10:35:59.729Z,2.10
2019-03-10T10:38:55.239Z,4.30
2019-03-10T10:41:42.189Z,5.43
2019-03-10T10:44:29.343Z,3.37
2019-03-10T10:47:11.365Z,3.53
2019-03-10T10:50:18.183Z,1.93
2019-03-10T10:53:05.879Z,2.73
2019-03-10T10:55:47.833Z,1.83
2019-03-10T10:58:34.660Z,2.73
2019-03-10T11:01:12.060Z,3.43
2019-03-10T11:04:09.508Z,4.07
2019-03-10T11:07:10.966Z,2.47
2019-03-10T11:09:59.444Z,2.20
2019-03-10T11:12:41.900Z,4.30
2019-03-10T11:15:31.891Z,4.10
2019-03-10T11:18:23.966Z,2.23
2019-03-10T11:21:15.080Z,7.37
2019-03-10T11:23:55.443Z,3.03
2019-03-10T11:26:43.718Z,3.03
2019-03-10T11:29:30.603Z,2.80
2019-03-10T11:32:28.091Z,2.30
2019-03-10T11:35:19.306Z,5.20
2019-03-10T11:38:13.223Z,4.17
2019-03-10T11:41:13.675Z,4.20
2019-03-10T11:44:11.583Z,2.00
2019-03-10T11:46:45.631Z,2.90
2019-03-10T11:49:42.913Z,3.10
2019-03-10T11:52:24.022Z,2.27
2019-03-10T11:55:27.494Z,2.53
2019-03-10T11:58:18.516Z,1.80
2019-03-10T12:01:05.196Z,3.87
2019-03-10T12:03:51.879Z,3.47
2019-03-10T12:06:38.503Z,2.00
2019-03-10T12:09:26.274Z,2.70
2019-03-10T12:11:55.928Z,2.70
2019-03-10T12:14:25.385Z,2.90
2019-03-10T12:16:54.823Z,2.37
2019-03-10T12:19:24.169Z,2.33
2019-03-10T12:21:55.834Z,2.30
2019-03-10T12:24:25.021Z,2.10
2019-03-10T12:26:56.128Z,1.37
2019-03-10T12:29:25.460Z,2.73
2019-03-10T12:31:54.836Z,3.10
2019-03-10T12:34:24.088Z,9.83
2019-03-10T12:36:53.393Z,7.53
2019-03-10T12:39:22.828Z,1.67
2019-03-10T12:41:58.337Z,4.43
2019-03-10T12:44:23.317Z,7.03
2019-03-10T12:46:52.782Z,8.23
2019-03-10T12:49:22.253Z,3.50
2019-03-10T12:51:51.443Z,5.50
2019-03-10T12:54:20.546Z,6.87
2019-03-10T12:56:49.645Z,4.40
2019-03-10T12:59:18.672Z,3.63
2019-03-10T13:01:48.133Z,6.37
2019-03-10T13:04:19.166Z,4.93
2019-03-10T13:06:48.271Z,10.00
2019-03-10T13:09:17.321Z,7.90
2019-03-10T13:11:46.383Z,10.50
2019-03-10T13:14:15.607Z,15.77
2019-03-10T13:16:44.691Z,6.83
2019-03-10T13:19:13.970Z,12.60
2019-03-10T13:21:43.139Z,15.63
2019-03-10T13:24:13.607Z,3.30
2019-03-10T13:26:42.650Z,10.90
2019-03-10T13:29:13.275Z,4.10
2019-03-10T13:31:42.441Z,6.57
2019-03-10T13:34:11.555Z,6.83
2019-03-10T13:36:40.650Z,6.03
2019-03-10T13:39:09.770Z,5.90
2019-03-10T13:41:40.499Z,8.70
2019-03-10T13:44:11.149Z,7.70
2019-03-10T13:46:40.216Z,5.37
2019-03-10T13:49:09.360Z,5.80
2019-03-10T13:51:38.580Z,8.17
2019-03-10T13:54:07.518Z,4.47
2019-03-10T13:56:37.085Z,5.50
2019-03-10T13:59:06.363Z,4.03
2019-03-10T14:01:35.878Z,7.40
2019-03-10T14:04:05.201Z,9.73
2019-03-10T14:06:34.622Z,7.93
2019-03-10T14:09:08.054Z,4.20
2019-03-10T14:11:37.709Z,3.00
2019-03-10T14:14:08.007Z,3.67
2019-03-10T14:16:38.527Z,4.30
2019-03-10T14:19:09.141Z,3.27
2019-03-10T14:21:42.706Z,4.23
2019-03-10T14:24:12.093Z,6.57
2019-03-10T14:26:41.407Z,7.47
2019-03-10T14:29:10.802Z,9.67
2019-03-10T14:31:41.924Z,2.80
2019-03-10T14:34:11.574Z,7.90
2019-03-10T14:36:41.946Z,3.63
2019-03-10T14:39:11.397Z,5.30
2019-03-10T14:41:40.995Z,2.27
2019-03-10T14:44:12.915Z,3.50
2019-03-10T14:46:42.619Z,11.37
2019-03-10T14:49:22.543Z,3.70
2019-03-10T14:51:45.388Z,2.83
2019-03-10T14:54:14.675Z,10.70
2019-03-10T14:56:43.809Z,5.93
2019-03-10T14:59:13.572Z,9.67
2019-03-10T15:01:42.767Z,5.00
2019-03-10T15:04:14.378Z,6.40
2019-03-10T15:06:43.623Z,6.30
2019-03-10T15:09:15.386Z,4.73
2019-03-10T15:11:44.556Z,5.33
2019-03-10T15:14:13.933Z,4.23
2019-03-10T15:16:43.366Z,7.30
2019-03-10T15:19:12.527Z,1.47
2019-03-10T15:21:42.181Z,3.37
2019-03-10T15:24:11.671Z,3.70
2019-03-10T15:26:45.769Z,4.43
2019-03-10T15:29:15.155Z,5.50
2019-03-10T15:31:45.089Z,2.77
2019-03-10T15:34:14.678Z,2.10
2019-03-10T15:36:44.724Z,3.87
2019-03-10T15:39:17.505Z,2.47
2019-03-10T15:41:55.875Z,7.43
2019-03-10T15:44:25.374Z,5.23
2019-03-10T15:47:00.119Z,2.10
2019-03-10T15:49:31.315Z,2.97
2019-03-10T15:52:01.134Z,3.67
2019-03-10T15:54:32.337Z,1.47
2019-03-10T15:57:02.064Z,3.37
2019-03-10T15:59:32.092Z,2.17
2019-03-10T16:02:01.777Z,2.73
2019-03-10T16:04:35.078Z,6.40
2019-03-10T16:07:05.098Z,2.20
2019-03-10T16:09:34.979Z,2.97
2019-03-10T16:12:04.694Z,6.83
2019-03-10T16:14:34.904Z,7.23
2019-03-10T16:17:06.626Z,10.67
2019-03-10T16:19:41.462Z,4.37
2019-03-10T16:22:11.402Z,5.90
2019-03-10T16:24:42.620Z,3.83
2019-03-10T16:27:19.321Z,3.40
2019-03-10T16:29:56.511Z,3.23
2019-03-10T16:32:29.561Z,4.07
2019-03-10T16:35:05.589Z,3.07
2019-03-10T16:37:38.813Z,2.13
2019-03-10T16:40:12.561Z,2.50
2019-03-10T16:42:43.686Z,7.50
2019-03-10T16:45:18.572Z,2.40
2019-03-10T16:47:57.571Z,4.17
2019-03-10T16:50:47.426Z,2.87
2019-03-10T16:53:16.801Z,4.50
2019-03-10T16:55:59.198Z,2.63
2019-03-10T16:58:38.527Z,3.40
2019-03-10T17:01:22.044Z,7.00
2019-03-10T17:03:47.275Z,7.83
2019-03-10T17:06:18.120Z,5.00
2019-03-10T17:08:55.878Z,4.70
2019-03-10T17:11:24.962Z,2.33
2019-03-10T17:13:53.999Z,5.70
2019-03-10T17:16:23.944Z,19.03
2019-03-10T17:18:53.903Z,3.50
2019-03-10T17:21:50.998Z,3.70
2019-03-10T17:24:58.196Z,2.40
2019-03-10T17:27:45.532Z,2.57
2019-03-10T17:30:43.380Z,3.57
2019-03-10T17:33:20.981Z,5.00
2019-03-10T17:36:01.572Z,2.23
2019-03-10T17:38:45.342Z,2.63
2019-03-10T17:41:39.525Z,1.70
2019-03-10T17:44:22.642Z,9.40
2019-03-10T17:47:01.739Z,3.80
2019-03-10T17:49:38.254Z,5.93
2019-03-10T17:52:40.862Z,1.90
2019-03-10T17:55:23.360Z,4.13
2019-03-10T17:58:10.685Z,3.77
2019-03-10T18:00:46.211Z,2.60
2019-03-10T18:03:26.665Z,4.20
2019-03-10T18:06:00.512Z,1.10
2019-03-10T18:08:39.216Z,1.53
2019-03-10T18:11:16.698Z,1.50
2019-03-10T18:13:45.739Z,1.30
2019-03-10T18:16:14.779Z,2.27
2019-03-10T18:18:43.774Z,3.37
2019-03-10T18:21:12.904Z,3.47
2019-03-10T18:23:42.006Z,2.43
2019-03-10T18:26:16.179Z,5.63
2019-03-10T18:28:48.675Z,3.77
2019-03-10T18:31:17.638Z,1.50
2019-03-10T18:33:46.633Z,1.63
2019-03-10T18:36:15.524Z,2.53
2019-03-10T18:38:44.509Z,3.03
2019-03-10T18:41:13.481Z,1.90
2019-03-10T18:43:42.388Z,8.23
2019-03-10T18:46:11.334Z,2.13
2019-03-10T18:48:40.156Z,4.90
2019-03-10T18:51:09.026Z,2.60
2019-03-10T18:53:38.066Z,4.60
2019-03-10T18:56:07.162Z,3.30
2019-03-10T18:58:36.091Z,3.67
2019-03-10T19:01:06.178Z,3.70
2019-03-10T19:03:35.256Z,5.97
2019-03-10T19:06:04.365Z,1.90
2019-03-10T19:08:33.423Z,2.00
2019-03-10T19:11:02.492Z,2.70
2019-03-10T19:13:31.593Z,3.97
2019-03-10T19:16:00.637Z,3.17
2019-03-10T19:18:29.642Z,2.57
2019-03-10T19:20:58.631Z,1.70
2019-03-10T19:23:28.693Z,2.90
2019-03-10T19:25:57.833Z,4.27
2019-03-10T19:28:26.914Z,6.70
2019-03-10T19:30:56.015Z,5.57
2019-03-10T19:33:25.035Z,8.17
2019-03-10T19:35:53.987Z,5.43
2019-03-10T19:38:23.055Z,3.90
2019-03-10T19:40:52.643Z,2.80
2019-03-10T19:43:21.663Z,4.53
2019-03-10T19:45:50.755Z,4.60
2019-03-10T19:48:19.670Z,3.27
2019-03-10T19:50:48.749Z,4.00
2019-03-10T19:53:17.911Z,6.27
2019-03-10T19:55:46.915Z,3.67
2019-03-10T19:58:15.882Z,3.27
2019-03-10T20:00:44.971Z,2.23
2019-03-10T20:03:15.439Z,2.80
2019-03-10T20:05:44.751Z,2.27
2019-03-10T20:08:13.786Z,2.27
2019-03-10T20:10:42.861Z,4.83
2019-03-10T20:13:12.073Z,3.40
2019-03-10T20:15:41.157Z,2.50
2019-03-10T20:18:10.236Z,5.00
2019-03-10T20:20:39.334Z,2.30
2019-03-10T20:23:08.297Z,3.27
2019-03-10T20:25:37.521Z,3.80
2019-03-10T20:28:09.215Z,3.57
2019-03-10T20:30:37.550Z,2.17
2019-03-10T20:33:06.597Z,1.53
2019-03-10T20:35:35.702Z,4.20
2019-03-10T20:38:04.682Z,2.07
2019-03-10T20:40:33.910Z,1.73
2019-03-10T20:43:03.423Z,2.60
2019-03-10T20:45:33.100Z,1.93
2019-03-10T20:48:02.699Z,3.23
2019-03-10T20:50:31.976Z,7.83
2019-03-10T20:53:01.105Z,8.30
2019-03-10T20:55:30.443Z,2.90
2019-03-10T20:57:59.731Z,5.87
2019-03-10T21:00:39.184Z,5.83
2019-03-10T21:03:17.106Z,6.70
2019-03-10T21:05:45.782Z,10.73
2019-03-10T21:08:15.075Z,7.20
2019-03-10T21:10:44.863Z,5.67
2019-03-10T21:13:14.323Z,5.47
2019-03-10T21:15:43.917Z,6.93
2019-03-10T21:18:13.796Z,10.40
2019-03-10T21:20:43.275Z,7.30
2019-03-10T21:23:12.930Z,8.10
2019-03-10T21:25:42.507Z,6.80
2019-03-10T21:28:17.254Z,10.03
2019-03-10T21:30:46.797Z,8.60
2019-03-10T21:33:15.920Z,8.50
2019-03-10T21:35:45.406Z,7.43
2019-03-10T21:38:14.940Z,9.67
2019-03-10T21:40:49.199Z,7.00
2019-03-10T21:43:19.522Z,9.90
2019-03-10T21:45:49.829Z,10.07
2019-03-10T21:48:19.123Z,8.40
2019-03-10T21:50:48.090Z,10.30
2019-03-10T21:53:17.066Z,16.67
2019-03-10T21:55:46.084Z,6.07
2019-03-10T21:58:15.088Z,5.93
2019-03-10T22:00:44.117Z,8.60
2019-03-10T22:03:13.141Z,10.13
2019-03-10T22:05:42.229Z,15.17
2019-03-10T22:08:12.645Z,4.40
2019-03-10T22:10:41.722Z,18.27
2019-03-10T22:13:11.033Z,9.03
2019-03-10T22:15:41.992Z,10.60
2019-03-10T22:18:11.182Z,12.97
2019-03-10T22:20:40.168Z,20.07
2019-03-10T22:23:12.126Z,7.93
2019-03-10T22:25:41.869Z,10.80
2019-03-10T22:28:10.867Z,5.40
2019-03-10T22:30:40.005Z,10.53
2019-03-10T22:33:12.133Z,5.80
2019-03-10T22:35:41.138Z,5.27
2019-03-10T22:38:10.428Z,14.60
2019-03-10T22:40:39.386Z,11.60
2019-03-10T22:43:08.265Z,11.70
2019-03-10T22:45:37.241Z,8.40
2019-03-10T22:48:06.220Z,5.80
2019-03-10T22:50:35.188Z,9.10
2019-03-10T22:53:04.095Z,3.80
2019-03-10T22:55:32.987Z,6.50
2019-03-10T22:58:01.949Z,6.10
2019-03-10T23:00:48.687Z,11.90
2019-03-10T23:03:17.775Z,11.33
2019-03-10T23:05:46.772Z,8.87
2019-03-10T23:08:15.809Z,4.87
2019-03-10T23:10:44.893Z,6.93
2019-03-10T23:13:13.948Z,8.83
2019-03-10T23:15:42.936Z,8.57
2019-03-10T23:18:12.310Z,6.77
2019-03-10T23:20:41.302Z,12.67
2019-03-10T23:23:10.312Z,14.60
2019-03-10T23:25:41.777Z,14.70
2019-03-10T23:28:10.290Z,8.47
2019-03-10T23:30:39.436Z,13.30
2019-03-10T23:33:09.252Z,10.67
2019-03-10T23:35:38.268Z,7.83
2019-03-10T23:38:07.328Z,12.43
2019-03-10T23:40:36.320Z,10.80
2019-03-10T23:43:05.419Z,3.47
2019-03-10T23:45:34.507Z,10.77
2019-03-10T23:48:03.576Z,14.37
2019-03-10T23:50:32.574Z,6.63
2019-03-10T23:53:01.446Z,4.97
2019-03-10T23:55:33.158Z,5.63
2019-03-10T23:58:02.056Z,10.63
